Time,TemperatureF,DewpointF,PressureIn,WindDirection,WindDirectionDegrees,WindSpeedMPH,WindSpeedGustMPH,Humidity,HourlyPrecipIn,Conditions,Clouds,dailyrainin,SoftwareType,DateUTC
2013-04-24 00:00:00,68.0,-99.9,30.05,SE,140,17.0,-999.0,-999,-99.99,,,-99.99,,2013-04-24 05:00:00,
2013-04-24 00:13:00,68.0,-99.9,30.05,SSE,150,16.0,-999.0,-999,-99.99,,,-99.99,,2013-04-24 05:13:00,
2013-04-24 00:22:00,68.0,-99.9,30.05,SSE,150,16.0,-999.0,-999,-99.99,,,-99.99,,2013-04-24 05:22:00,
2013-04-24 00:30:00,69.0,-99.9,30.04,SE,140,17.0,-999.0,-999,-99.99,,,-99.99,,2013-04-24 05:30:00,
2013-04-24 00:52:00,68.0,-99.9,30.05,SE,140,17.0,-999.0,-999,-99.99,,,-99.99,,2013-04-24 05:52:00,
2013-04-24 01:00:00,68.0,-99.9,30.04,SSE,150,18.0,-999.0,-999,-99.99,,,-99.99,,2013-04-24 06:00:00,
2013-04-24 01:22:00,69.0,-99.9,30.04,SE,140,17.0,-999.0,-999,-99.99,,,-99.99,,2013-04-24 06:22:00,
2013-04-24 01:30:00,69.0,-99.9,30.04,SSE,150,17.0,-999.0,-999,-99.99,,,-99.99,,2013-04-24 06:30:00,
2013-04-24 01:52:00,68.0,-99.9,30.04,SSE,150,18.0,-999.0,-999,-99.99,,,-99.99,,2013-04-24 06:52:00,
2013-04-24 02:00:00,68.0,-99.9,30.03,SSE,150,18.0,-999.0,-999,-99.99,,,-99.99,,2013-04-24 07:00:00,
2013-04-24 02:11:00,69.0,-99.9,30.04,SSE,150,17.0,-999.0,-999,-99.99,,,-99.99,,2013-04-24 07:11:00,
2013-04-24 02:22:00,69.0,-99.9,30.04,SSE,150,17.0,-999.0,-999,-99.99,,,-99.99,,2013-04-24 07:22:00,
2013-04-24 02:30:00,69.0,-99.9,30.03,SSE,150,17.0,-999.0,-999,-99.99,,,-99.99,,2013-04-24 07:30:00,
2013-04-24 02:52:00,68.0,-99.9,30.03,SSE,150,18.0,-999.0,-999,-99.99,,,-99.99,,2013-04-24 07:52:00,
2013-04-24 03:00:00,68.0,-99.9,30.03,SSE,160,15.0,-999.0,-999,-99.99,,,-99.99,,2013-04-24 08:00:00,
2013-04-24 03:22:00,69.0,-99.9,30.03,SSE,150,17.0,-999.0,-999,-99.99,,,-99.99,,2013-04-24 08:22:00,
2013-04-24 03:30:00,69.0,-99.9,30.03,SSE,150,11.0,-999.0,-999,-99.99,,,-99.99,,2013-04-24 08:30:00,
2013-04-24 03:52:00,68.0,-99.9,30.03,SSE,160,15.0,-999.0,-999,-99.99,,,-99.99,,2013-04-24 08:52:00,
2013-04-24 04:00:00,69.0,-99.9,30.03,SSE,150,10.0,-999.0,-999,-99.99,,,-99.99,,2013-04-24 09:00:00,
2013-04-24 04:22:00,69.0,-99.9,30.03,SSE,150,11.0,-999.0,-999,-99.99,,,-99.99,,2013-04-24 09:22:00,
2013-04-24 04:30:00,68.0,-99.9,30.04,SE,130,9.0,-999.0,-999,-99.99,,,-99.99,,2013-04-24 09:30:00,
2013-04-24 04:53:00,69.0,-99.9,30.03,SSE,150,10.0,-999.0,-999,-99.99,,,-99.99,,2013-04-24 09:53:00,
2013-04-24 05:00:00,68.0,-99.9,30.05,ESE,120,7.0,-999.0,-999,-99.99,,,-99.99,,2013-04-24 10:00:00,
2013-04-24 05:13:00,68.0,-99.9,30.04,SE,130,9.0,-999.0,-999,-99.99,,,-99.99,,2013-04-24 10:13:00,
2013-04-24 05:23:00,68.0,-99.9,30.04,SE,130,9.0,-999.0,-999,-99.99,,,-99.99,,2013-04-24 10:23:00,
2013-04-24 05:30:00,68.0,-99.9,30.05,ESE,120,8.0,-999.0,-999,-99.99,,,-99.99,,2013-04-24 10:30:00,
2013-04-24 05:53:00,68.0,-99.9,30.05,ESE,120,7.0,-999.0,-999,-99.99,,,-99.99,,2013-04-24 10:53:00,
2013-04-24 06:00:00,68.0,-99.9,30.06,SE,130,8.0,-999.0,-999,-99.99,,,-99.99,,2013-04-24 11:00:00,
2013-04-24 06:22:00,68.0,-99.9,30.05,ESE,120,8.0,-999.0,-999,-99.99,,,-99.99,,2013-04-24 11:22:00,
2013-04-24 06:30:00,68.0,-99.9,30.06,ESE,120,6.0,-999.0,-999,-99.99,,,-99.99,,2013-04-24 11:30:00,
2013-04-24 06:53:00,68.0,-99.9,30.06,SE,130,8.0,-999.0,-999,-99.99,,,-99.99,,2013-04-24 11:53:00,
2013-04-24 07:00:00,67.0,-99.9,30.06,ESE,120,8.0,-999.0,-999,-99.99,,,-99.99,,2013-04-24 12:00:00,
2013-04-24 07:22:00,68.0,-99.9,30.06,ESE,120,6.0,-999.0,-999,-99.99,,,-99.99,,2013-04-24 12:22:00,
2013-04-24 07:30:00,68.0,-99.9,30.06,SE,130,8.0,-999.0,-999,-99.99,,,-99.99,,2013-04-24 12:30:00,
2013-04-24 07:52:00,67.0,-99.9,30.06,ESE,120,8.0,-999.0,-999,-99.99,,,-99.99,,2013-04-24 12:52:00,
2013-04-24 08:00:00,68.0,-99.9,30.06,ESE,120,10.0,-999.0,-999,-99.99,,,-99.99,,2013-04-24 13:00:00,
2013-04-24 08:22:00,68.0,-99.9,30.06,SE,130,8.0,-999.0,-999,-99.99,,,-99.99,,2013-04-24 13:22:00,
2013-04-24 08:30:00,68.0,-99.9,30.06,ESE,120,10.0,-999.0,-999,-99.99,,,-99.99,,2013-04-24 13:30:00,
2013-04-24 08:52:00,68.0,-99.9,30.06,ESE,120,10.0,-999.0,-999,-99.99,,,-99.99,,2013-04-24 13:52:00,
2013-04-24 09:00:00,68.0,-99.9,30.07,ESE,120,9.0,-999.0,-999,-99.99,,,-99.99,,2013-04-24 14:00:00,
2013-04-24 09:22:00,68.0,-99.9,30.06,ESE,120,10.0,-999.0,-999,-99.99,,,-99.99,,2013-04-24 14:22:00,
2013-04-24 09:30:00,69.0,-99.9,30.09,SE,130,8.0,-999.0,-999,-99.99,,,-99.99,,2013-04-24 14:30:00,
2013-04-24 09:52:00,68.0,-99.9,30.07,ESE,120,9.0,-999.0,-999,-99.99,,,-99.99,,2013-04-24 14:52:00,
2013-04-24 10:00:00,69.0,-99.9,30.09,SE,130,16.0,-999.0,-999,-99.99,,,-99.99,,2013-04-24 15:00:00,
2013-04-24 10:22:00,69.0,-99.9,30.09,SE,130,8.0,-999.0,-999,-99.99,,,-99.99,,2013-04-24 15:22:00,
2013-04-24 10:30:00,69.0,-99.9,30.08,SE,130,17.0,-999.0,-999,-99.99,,,-99.99,,2013-04-24 15:30:00,
2013-04-24 10:53:00,69.0,-99.9,30.09,SE,130,16.0,-999.0,-999,-99.99,,,-99.99,,2013-04-24 15:53:00,
2013-04-24 11:00:00,70.0,-99.9,30.07,SE,130,18.0,-999.0,-999,-99.99,,,-99.99,,2013-04-24 16:00:00,
2013-04-24 11:23:00,69.0,-99.9,30.08,SE,130,17.0,-999.0,-999,-99.99,,,-99.99,,2013-04-24 16:23:00,
2013-04-24 11:30:00,70.0,-99.9,30.07,SE,140,21.0,-999.0,-999,-99.99,,,-99.99,,2013-04-24 16:30:00,
2013-04-24 11:53:00,70.0,-99.9,30.07,SE,130,18.0,-999.0,-999,-99.99,,,-99.99,,2013-04-24 16:53:00,
2013-04-24 12:00:00,70.0,-99.9,30.11,SSE,160,11.0,-999.0,-999,-99.99,,,-99.99,,2013-04-24 17:00:00,
2013-04-24 12:12:00,70.0,-99.9,30.07,SE,140,21.0,-999.0,-999,-99.99,,,-99.99,,2013-04-24 17:12:00,
2013-04-24 12:22:00,70.0,-99.9,30.07,SE,140,21.0,-999.0,-999,-99.99,,,-99.99,,2013-04-24 17:22:00,
2013-04-24 12:30:00,70.0,-99.9,30.13,South,190,6.0,-999.0,-999,-99.99,,,-99.99,,2013-04-24 17:30:00,
2013-04-24 12:42:00,70.0,-99.9,30.11,SSE,160,11.0,-999.0,-999,-99.99,,,-99.99,,2013-04-24 17:42:00,
2013-04-24 12:52:00,70.0,-99.9,30.11,SSE,160,11.0,-999.0,-999,-99.99,,,-99.99,,2013-04-24 17:52:00,
2013-04-24 13:00:00,70.0,-99.9,30.12,SSW,200,5.0,-999.0,-999,-99.99,,,-99.99,,2013-04-24 18:00:00,
2013-04-24 13:22:00,70.0,-99.9,30.13,South,190,6.0,-999.0,-999,-99.99,,,-99.99,,2013-04-24 18:22:00,
2013-04-24 13:30:00,70.0,-99.9,30.12,SSW,200,8.0,-999.0,-999,-99.99,,,-99.99,,2013-04-24 18:30:00,
2013-04-24 13:52:00,70.0,-99.9,30.12,SSW,200,5.0,-999.0,-999,-99.99,,,-99.99,,2013-04-24 18:52:00,
2013-04-24 14:00:00,69.0,-99.9,30.07,SSE,160,22.0,-999.0,-999,-99.99,,,-99.99,,2013-04-24 19:00:00,
2013-04-24 14:22:00,70.0,-99.9,30.12,SSW,200,8.0,-999.0,-999,-99.99,,,-99.99,,2013-04-24 19:22:00,
2013-04-24 14:30:00,69.0,-99.9,29.99,SSE,160,40.0,-999.0,-999,-99.99,,,-99.99,,2013-04-24 19:30:00,
2013-04-24 14:52:00,69.0,-99.9,30.07,SSE,160,22.0,-999.0,-999,-99.99,,,-99.99,,2013-04-24 19:52:00,
2013-04-24 15:00:00,70.0,-99.9,30.03,SSE,160,25.0,-999.0,-999,-99.99,,,-99.99,,2013-04-24 20:00:00,
2013-04-24 15:11:00,69.0,-99.9,29.99,SSE,160,40.0,-999.0,-999,-99.99,,,-99.99,,2013-04-24 20:11:00,
2013-04-24 15:22:00,69.0,-99.9,29.99,SSE,160,40.0,-999.0,-999,-99.99,,,-99.99,,2013-04-24 20:22:00,
2013-04-24 15:30:00,70.0,-99.9,30.05,SSE,160,16.0,-999.0,-999,-99.99,,,-99.99,,2013-04-24 20:30:00,
2013-04-24 15:52:00,70.0,-99.9,30.03,SSE,160,25.0,-999.0,-999,-99.99,,,-99.99,,2013-04-24 20:52:00,
2013-04-24 16:00:00,70.0,-99.9,30.10,WSW,240,8.0,-999.0,-999,-99.99,,,-99.99,,2013-04-24 21:00:00,
2013-04-24 16:22:00,70.0,-99.9,30.05,SSE,160,16.0,-999.0,-999,-99.99,,,-99.99,,2013-04-24 21:22:00,
2013-04-24 16:30:00,70.0,-99.9,30.05,South,180,10.0,-999.0,-999,-99.99,,,-99.99,,2013-04-24 21:30:00,
2013-04-24 16:53:00,70.0,-99.9,30.10,WSW,240,8.0,-999.0,-999,-99.99,,,-99.99,,2013-04-24 21:53:00,
2013-04-24 17:00:00,69.0,-99.9,30.08,SSE,150,5.0,-999.0,-999,-99.99,,,-99.99,,2013-04-24 22:00:00,
2013-04-24 17:12:00,70.0,-99.9,30.05,South,180,10.0,-999.0,-999,-99.99,,,-99.99,,2013-04-24 22:12:00,
2013-04-24 17:22:00,70.0,-99.9,30.05,South,180,10.0,-999.0,-999,-99.99,,,-99.99,,2013-04-24 22:22:00,
2013-04-24 17:30:00,68.0,-99.9,30.07,ENE,60,5.0,-999.0,-999,-99.99,,,-99.99,,2013-04-24 22:30:00,
2013-04-24 17:53:00,69.0,-99.9,30.08,SSE,150,5.0,-999.0,-999,-99.99,,,-99.99,,2013-04-24 22:53:00,
2013-04-24 18:00:00,69.0,-99.9,30.05,East,90,6.0,-999.0,-999,-99.99,,,-99.99,,2013-04-24 23:00:00,
2013-04-24 18:22:00,68.0,-99.9,30.07,ENE,60,5.0,-999.0,-999,-99.99,,,-99.99,,2013-04-24 23:22:00,
2013-04-24 18:30:00,69.0,-99.9,30.05,East,80,3.0,-999.0,-999,-99.99,,,-99.99,,2013-04-24 23:30:00,
2013-04-24 18:52:00,69.0,-99.9,30.05,East,90,6.0,-999.0,-999,-99.99,,,-99.99,,2013-04-24 23:52:00,
2013-04-24 19:00:00,71.0,-99.9,30.05,NE,50,5.0,-999.0,-999,-99.99,,,-99.99,,2013-04-25 00:00:00,
2013-04-24 19:12:00,69.0,-99.9,30.05,East,80,3.0,-999.0,-999,-99.99,,,-99.99,,2013-04-25 00:12:00,
2013-04-24 19:23:00,69.0,-99.9,30.05,East,80,3.0,-999.0,-999,-99.99,,,-99.99,,2013-04-25 00:23:00,
2013-04-24 19:30:00,69.0,-99.9,30.07,NE,40,6.0,-999.0,-999,-99.99,,,-99.99,,2013-04-25 00:30:00,
2013-04-24 19:52:00,71.0,-99.9,30.05,NE,50,5.0,-999.0,-999,-99.99,,,-99.99,,2013-04-25 00:52:00,
2013-04-24 20:00:00,68.0,-99.9,30.07,NE,50,6.0,-999.0,-999,-99.99,,,-99.99,,2013-04-25 01:00:00,
2013-04-24 20:23:00,69.0,-99.9,30.07,NE,40,6.0,-999.0,-999,-99.99,,,-99.99,,2013-04-25 01:23:00,
2013-04-24 20:30:00,68.0,-99.9,30.08,NNE,30,5.0,-999.0,-999,-99.99,,,-99.99,,2013-04-25 01:30:00,
2013-04-24 20:53:00,68.0,-99.9,30.07,NE,50,6.0,-999.0,-999,-99.99,,,-99.99,,2013-04-25 01:53:00,
2013-04-24 21:00:00,68.0,-99.9,30.10,NNE,30,5.0,-999.0,-999,-99.99,,,-99.99,,2013-04-25 02:00:00,
2013-04-24 21:11:00,68.0,-99.9,30.08,NNE,30,5.0,-999.0,-999,-99.99,,,-99.99,,2013-04-25 02:11:00,
2013-04-24 21:22:00,68.0,-99.9,30.08,NNE,30,5.0,-999.0,-999,-99.99,,,-99.99,,2013-04-25 02:22:00,
2013-04-24 21:30:00,68.0,-99.9,30.11,North,10,3.0,-999.0,-999,-99.99,,,-99.99,,2013-04-25 02:30:00,
2013-04-24 22:00:00,68.0,-99.9,30.11,NNE,30,3.0,-999.0,-999,-99.99,,,-99.99,,2013-04-25 03:00:00,
2013-04-24 22:22:00,68.0,-99.9,30.11,North,10,3.0,-999.0,-999,-99.99,,,-99.99,,2013-04-25 03:22:00,
2013-04-24 22:30:00,68.0,-99.9,30.12,ENE,60,3.0,-999.0,-999,-99.99,,,-99.99,,2013-04-25 03:30:00,
2013-04-24 22:52:00,68.0,-99.9,30.11,NNE,30,3.0,-999.0,-999,-99.99,,,-99.99,,2013-04-25 03:52:00,
2013-04-24 23:00:00,67.0,-99.9,30.12,NE,50,5.0,-999.0,-999,-99.99,,,-99.99,,2013-04-25 04:00:00,
2013-04-24 23:13:00,68.0,-99.9,30.12,ENE,60,3.0,-999.0,-999,-99.99,,,-99.99,,2013-04-25 04:13:00,
2013-04-24 23:23:00,68.0,-99.9,30.12,ENE,60,3.0,-999.0,-999,-99.99,,,-99.99,,2013-04-25 04:23:00,
2013-04-24 23:30:00,68.0,-99.9,30.11,NE,50,6.0,-999.0,-999,-99.99,,,-99.99,,2013-04-25 04:30:00,
2013-04-24 23:52:00,67.0,-99.9,30.12,NE,50,5.0,-999.0,-999,-99.99,,,-99.99,,2013-04-25 04:52:00,